CFG1WM LEPA-EDLW
Flight info
| Callsign | CFG1WM |
|---|---|
| Flight time | N/A |
| Altitude | 34000 |
| Route | MEROS N853 LUMAS DCT MAXIR DCT LUSOL DCT BODRU DCT OKTET DCT IRMAR DCT KINES DCT VANAS DCT MOBLO DCT UBIMA DCT GILIR DCT PENDU DCT IXILU DCT EPL/N0444F320 DCT ROUSY DCT DIK/N0445F350 T856 AFNAF M170 ADEMI |
| Aircraft | A321/M-SDE3FGHIJ1LORVWXYZ/LB1D1 |
Departure
| Time | N/A |
|---|---|
| Airport | Palma de Mallorca Airport (LEPA) |
Arrival
| Time | 2026-05-03 20:19 |
|---|---|
| Airport | Dortmund Airport (EDLW) |
| Time | Latitude | Longitude | Altitude | Speed | Heading |
|---|---|---|---|---|---|
| 2026-05-03 20:15 | 51.59150 | 7.83858 | 3006 ft | 188 kts | 259° |
| 2026-05-03 20:15 | 51.58874 | 7.81840 | 3008 ft | 178 kts | 250° |
| 2026-05-03 20:15 | 51.58409 | 7.80153 | 2890 ft | 156 kts | 242° |
| 2026-05-03 20:15 | 51.57918 | 7.78660 | 2721 ft | 145 kts | 241° |
| 2026-05-03 20:16 | 51.57446 | 7.77275 | 2533 ft | 142 kts | 241° |
| 2026-05-03 20:16 | 51.56979 | 7.75922 | 2346 ft | 133 kts | 240° |
| 2026-05-03 20:16 | 51.56538 | 7.74652 | 2174 ft | 128 kts | 240° |
| 2026-05-03 20:16 | 51.56105 | 7.73413 | 2009 ft | 126 kts | 240° |
| 2026-05-03 20:17 | 51.55679 | 7.72193 | 1844 ft | 125 kts | 240° |
| 2026-05-03 20:17 | 51.55246 | 7.70955 | 1671 ft | 130 kts | 238° |
| 2026-05-03 20:17 | 51.54800 | 7.69682 | 1487 ft | 132 kts | 239° |
| 2026-05-03 20:17 | 51.54344 | 7.68382 | 1304 ft | 136 kts | 239° |
| 2026-05-03 20:18 | 51.53874 | 7.67043 | 1116 ft | 139 kts | 240° |
| 2026-05-03 20:18 | 51.53400 | 7.65689 | 932 ft | 142 kts | 239° |
| 2026-05-03 20:18 | 51.52918 | 7.64309 | 744 ft | 142 kts | 239° |
| 2026-05-03 20:18 | 51.52430 | 7.62932 | 529 ft | 141 kts | 239° |
| 2026-05-03 20:19 | 51.51956 | 7.61570 | 413 ft | 133 kts | 238° |
| 2026-05-03 20:19 | 51.51609 | 7.60603 | 414 ft | 57 kts | 241° |
| 2026-05-03 20:19 | 51.51478 | 7.60254 | 413 ft | 19 kts | 213° |
| 2026-05-03 20:19 | 51.51380 | 7.60291 | 410 ft | 12 kts | 147° |
| 2026-05-03 20:20 | 51.51361 | 7.60390 | 420 ft | 8 kts | 74° |
| 2026-05-03 20:20 | 51.51389 | 7.60476 | 420 ft | 11 kts | 59° |
| 2026-05-03 20:20 | 51.51441 | 7.60623 | 418 ft | 20 kts | 60° |
| 2026-05-03 20:20 | 51.51502 | 7.60797 | 419 ft | 14 kts | 60° |
| 2026-05-03 20:21 | 51.51555 | 7.60951 | 420 ft | 17 kts | 62° |
| 2026-05-03 20:21 | 51.51600 | 7.61103 | 420 ft | 14 kts | 66° |
| 2026-05-03 20:21 | 51.51634 | 7.61220 | 426 ft | 9 kts | 70° |
| 2026-05-03 20:21 | 51.51642 | 7.61302 | 434 ft | 6 kts | 86° |
| 2026-05-03 20:22 | 51.51648 | 7.61364 | 429 ft | 5 kts | 70° |
| 2026-05-03 20:22 | 51.51661 | 7.61404 | 424 ft | 0 kts | 60° |
| 2026-05-03 20:25 | 51.51654 | 7.61385 | 421 ft | 4 kts | 21° |
| 2026-05-03 20:25 | 51.51634 | 7.61391 | 434 ft | 4 kts | 328° |
| 2026-05-03 20:25 | 51.51623 | 7.61403 | 422 ft | 0 kts | 331° |